Date,TemperatureHighF,TemperatureAvgF,TemperatureLowF,DewpointHighF,DewpointAvgF,DewpointLowF,HumidityHigh,HumidityAvg,HumidityLow,PressureMaxIn,PressureMinIn,WindSpeedMaxMPH,WindSpeedAvgMPH,GustSpeedMaxMPH,PrecipitationSumIn
2013-4-1,54.1,44.0,34.0,39.0,26.3,8.0,94,55,20,30.15,30.05,20,9,24,0.00
2013-4-2,67.7,50.8,37.3,44.0,30.7,23.0,85,50,25,30.10,30.01,15,6,20,0.00
2013-4-3,68.2,53.4,34.6,36.0,29.8,25.0,74,44,24,30.12,30.06,12,4,14,0.00
2013-4-4,66.6,55.3,41.2,40.0,28.6,10.0,79,39,15,30.10,29.97,21,6,30,0.00
2013-4-5,59.8,49.3,42.4,42.0,32.9,22.0,85,56,25,30.03,29.94,27,11,35,0.00
2013-4-6,69.8,55.3,44.0,45.0,32.7,21.0,75,45,24,30.03,29.91,25,8,25,0.00
2013-4-7,72.9,56.6,45.0,50.0,32.3,19.0,62,41,21,29.90,29.71,15,5,20,0.00
2013-4-8,47.0,36.6,31.4,38.0,33.6,30.0,97,89,59,29.86,29.55,24,12,38,0.01
2013-4-9,54.4,40.8,29.3,37.0,25.8,13.0,95,59,30,30.11,29.85,13,6,21,0.02
2013-4-10,62.9,48.7,38.4,29.0,18.8,14.0,50,32,16,30.17,30.07,16,6,25,0.00
2013-4-11,65.0,53.2,38.7,41.0,25.3,12.0,70,35,25,30.10,29.78,16,5,20,0.00
2013-4-12,66.7,51.2,35.6,33.0,24.9,14.0,59,38,21,29.94,29.76,12,4,19,0.00
2013-4-13,66.3,55.4,38.9,36.0,29.1,18.0,54,38,25,29.94,29.80,18,7,25,0.00
2013-4-14,64.0,51.9,42.2,41.0,28.2,-24.0,76,44,4,29.81,29.70,21,10,26,0.00
2013-4-15,48.2,41.4,31.9,39.0,34.7,30.0,96,78,51,29.86,29.71,21,10,30,0.00
2013-4-16,44.0,34.7,27.5,33.0,28.4,20.0,95,79,56,30.03,29.80,23,11,38,0.00
2013-4-17,52.9,38.7,27.2,28.0,16.1,6.0,94,47,17,30.24,30.03,16,6,24,0.00
2013-4-18,55.1,44.8,37.3,17.0,9.6,1.0,36,24,17,30.28,30.18,24,9,35,0.00
2013-4-19,67.4,52.7,41.3,22.0,11.3,3.0,35,20,11,30.25,30.05,38,8,38,0.00
2013-4-20,72.4,57.8,40.4,25.0,19.9,12.0,53,25,15,30.04,29.94,15,5,21,0.00
2013-4-21,77.1,57.6,37.4,39.0,26.9,12.0,58,34,15,30.07,29.98,10,3,16,0.00
2013-4-22,73.9,59.9,44.6,39.0,21.9,2.0,42,24,9,30.01,29.80,12,4,17,0.00
2013-4-23,67.8,57.0,41.3,33.0,26.7,20.0,45,32,21,29.91,29.77,19,6,21,0.00
2013-4-24,67.6,53.1,35.6,46.0,31.4,19.0,94,48,19,29.91,29.79,12,4,20,0.00
2013-4-25,67.0,48.5,35.4,46.0,35.2,19.0,97,66,31,30.15,29.81,16,6,22,0.00
2013-4-26,71.8,56.7,41.1,37.0,26.2,18.0,61,33,19,30.16,30.09,8,3,12,0.00
2013-4-27,75.5,60.6,41.2,39.0,25.7,12.0,65,31,9,30.17,30.03,14,4,16,0.00
2013-4-28,80.0,64.9,51.3,34.0,23.1,13.0,41,22,9,30.03,29.83,16,5,23,0.00
2013-4-29,81.5,66.7,56.0,36.0,21.9,7.0,30,19,12,29.85,29.71,14,5,23,0.00
2013-4-30,71.4,62.6,55.3,44.0,26.9,9.0,50,28,13,29.75,29.68,15,8,24,0.00